sensor_id;sensor_type;location;lat;lon;timestamp;P1;durP1;ratioP1;P2;durP2;ratioP2
21416;SDS011;10869;52.238;10.716;2023-09-08T03:03:11;7.17;;;4.00;;
21416;SDS011;10869;52.238;10.716;2023-09-08T03:05:37;11.23;;;4.50;;
21416;SDS011;10869;52.238;10.716;2023-09-08T03:08:03;7.73;;;4.00;;
21416;SDS011;10869;52.238;10.716;2023-09-08T03:10:32;9.63;;;4.70;;
21416;SDS011;10869;52.238;10.716;2023-09-08T03:13:01;8.23;;;4.03;;
21416;SDS011;10869;52.238;10.716;2023-09-08T03:15:28;9.60;;;4.70;;
21416;SDS011;10869;52.238;10.716;2023-09-08T03:17:54;8.93;;;4.60;;
21416;SDS011;10869;52.238;10.716;2023-09-08T03:20:20;10.80;;;4.17;;
21416;SDS011;10869;52.238;10.716;2023-09-08T03:22:54;6.87;;;4.37;;
21416;SDS011;10869;52.238;10.716;2023-09-08T03:25:20;9.37;;;4.20;;
21416;SDS011;10869;52.238;10.716;2023-09-08T03:27:48;9.60;;;4.60;;
21416;SDS011;10869;52.238;10.716;2023-09-08T03:30:14;7.73;;;4.27;;
21416;SDS011;10869;52.238;10.716;2023-09-08T03:32:39;9.53;;;4.60;;
21416;SDS011;10869;52.238;10.716;2023-09-08T03:35:05;13.47;;;4.90;;
21416;SDS011;10869;52.238;10.716;2023-09-08T03:37:33;7.00;;;4.37;;
21416;SDS011;10869;52.238;10.716;2023-09-08T03:40:00;10.67;;;4.77;;
21416;SDS011;10869;52.238;10.716;2023-09-08T03:42:26;11.90;;;4.90;;
21416;SDS011;10869;52.238;10.716;2023-09-08T03:44:51;7.20;;;4.40;;
21416;SDS011;10869;52.238;10.716;2023-09-08T03:49:55;8.40;;;4.63;;
21416;SDS011;10869;52.238;10.716;2023-09-08T03:52:34;8.57;;;4.63;;
21416;SDS011;10869;52.238;10.716;2023-09-08T03:55:23;10.37;;;4.57;;
21416;SDS011;10869;52.238;10.716;2023-09-08T03:58:07;13.67;;;4.83;;
21416;SDS011;10869;52.238;10.716;2023-09-08T04:00:34;10.27;;;4.63;;
21416;SDS011;10869;52.238;10.716;2023-09-08T04:03:00;8.23;;;4.80;;
21416;SDS011;10869;52.238;10.716;2023-09-08T04:05:26;9.70;;;4.27;;
21416;SDS011;10869;52.238;10.716;2023-09-08T04:07:52;10.63;;;4.77;;
21416;SDS011;10869;52.238;10.716;2023-09-08T04:10:18;8.93;;;4.87;;
21416;SDS011;10869;52.238;10.716;2023-09-08T04:12:44;11.67;;;4.67;;
21416;SDS011;10869;52.238;10.716;2023-09-08T04:15:10;8.53;;;4.60;;
21416;SDS011;10869;52.238;10.716;2023-09-08T04:17:36;7.87;;;4.57;;
21416;SDS011;10869;52.238;10.716;2023-09-08T04:20:03;8.03;;;4.57;;
21416;SDS011;10869;52.238;10.716;2023-09-08T04:22:30;10.17;;;5.07;;
21416;SDS011;10869;52.238;10.716;2023-09-08T04:24:57;10.00;;;4.87;;
21416;SDS011;10869;52.238;10.716;2023-09-08T04:27:23;9.53;;;4.90;;
21416;SDS011;10869;52.238;10.716;2023-09-08T04:29:52;10.73;;;4.57;;
21416;SDS011;10869;52.238;10.716;2023-09-08T04:32:18;8.20;;;4.67;;
21416;SDS011;10869;52.238;10.716;2023-09-08T04:34:44;9.50;;;4.83;;
21416;SDS011;10869;52.238;10.716;2023-09-08T04:37:10;9.10;;;5.30;;
21416;SDS011;10869;52.238;10.716;2023-09-08T04:39:36;13.20;;;5.23;;
21416;SDS011;10869;52.238;10.716;2023-09-08T04:42:03;9.40;;;4.37;;
21416;SDS011;10869;52.238;10.716;2023-09-08T04:44:29;9.30;;;4.63;;
21416;SDS011;10869;52.238;10.716;2023-09-08T04:46:57;6.83;;;4.50;;
21416;SDS011;10869;52.238;10.716;2023-09-08T04:49:24;8.27;;;4.70;;
21416;SDS011;10869;52.238;10.716;2023-09-08T04:51:50;11.70;;;5.13;;
21416;SDS011;10869;52.238;10.716;2023-09-08T04:54:19;9.23;;;4.60;;
21416;SDS011;10869;52.238;10.716;2023-09-08T04:56:51;8.57;;;4.73;;
21416;SDS011;10869;52.238;10.716;2023-09-08T04:59:21;10.03;;;5.03;;
21416;SDS011;10869;52.238;10.716;2023-09-08T05:01:48;8.77;;;4.60;;
21416;SDS011;10869;52.238;10.716;2023-09-08T05:04:16;9.20;;;4.90;;
21416;SDS011;10869;52.238;10.716;2023-09-08T05:06:43;8.10;;;4.43;;
21416;SDS011;10869;52.238;10.716;2023-09-08T05:09:12;12.97;;;5.30;;
21416;SDS011;10869;52.238;10.716;2023-09-08T05:11:39;7.60;;;4.30;;
21416;SDS011;10869;52.238;10.716;2023-09-08T05:14:08;7.97;;;4.63;;
21416;SDS011;10869;52.238;10.716;2023-09-08T05:16:34;8.60;;;4.63;;
21416;SDS011;10869;52.238;10.716;2023-09-08T05:19:10;7.37;;;4.33;;
21416;SDS011;10869;52.238;10.716;2023-09-08T05:21:44;9.27;;;4.83;;
21416;SDS011;10869;52.238;10.716;2023-09-08T05:24:26;7.30;;;4.50;;
21416;SDS011;10869;52.238;10.716;2023-09-08T05:32:28;11.17;;;4.57;;
21416;SDS011;10869;52.238;10.716;2023-09-08T05:37:34;9.13;;;4.77;;
21416;SDS011;10869;52.238;10.716;2023-09-08T05:40:03;7.00;;;4.07;;
21416;SDS011;10869;52.238;10.716;2023-09-08T05:42:30;8.13;;;4.57;;
21416;SDS011;10869;52.238;10.716;2023-09-08T05:44:56;8.30;;;4.67;;
21416;SDS011;10869;52.238;10.716;2023-09-08T05:47:24;8.07;;;4.47;;
21416;SDS011;10869;52.238;10.716;2023-09-08T05:49:56;9.17;;;4.83;;
21416;SDS011;10869;52.238;10.716;2023-09-08T05:52:22;9.30;;;4.70;;
21416;SDS011;10869;52.238;10.716;2023-09-08T06:06:07;12.57;;;4.57;;
21416;SDS011;10869;52.238;10.716;2023-09-08T06:16:19;11.20;;;4.40;;
21416;SDS011;10869;52.238;10.716;2023-09-08T06:18:46;9.60;;;4.40;;
21416;SDS011;10869;52.238;10.716;2023-09-08T06:24:35;7.20;;;3.83;;
21416;SDS011;10869;52.238;10.716;2023-09-08T06:30:25;12.57;;;4.60;;
21416;SDS011;10869;52.238;10.716;2023-09-08T06:36:13;7.10;;;4.10;;
21416;SDS011;10869;52.238;10.716;2023-09-08T06:38:42;8.90;;;4.50;;
21416;SDS011;10869;52.238;10.716;2023-09-08T06:41:10;8.50;;;3.97;;
21416;SDS011;10869;52.238;10.716;2023-09-08T06:46:58;8.67;;;4.43;;
21416;SDS011;10869;52.238;10.716;2023-09-08T06:49:25;8.63;;;4.50;;
21416;SDS011;10869;52.238;10.716;2023-09-08T06:54:51;8.93;;;4.40;;
21416;SDS011;10869;52.238;10.716;2023-09-08T07:00:29;9.47;;;4.43;;
21416;SDS011;10869;52.238;10.716;2023-09-08T07:02:59;13.73;;;4.70;;
21416;SDS011;10869;52.238;10.716;2023-09-08T07:05:30;8.70;;;3.97;;
21416;SDS011;10869;52.238;10.716;2023-09-08T07:07:55;11.80;;;4.60;;
21416;SDS011;10869;52.238;10.716;2023-09-08T07:10:21;9.60;;;4.13;;
21416;SDS011;10869;52.238;10.716;2023-09-08T07:12:47;10.43;;;3.93;;
21416;SDS011;10869;52.238;10.716;2023-09-08T07:15:13;7.77;;;3.70;;
21416;SDS011;10869;52.238;10.716;2023-09-08T07:17:39;8.33;;;3.83;;
21416;SDS011;10869;52.238;10.716;2023-09-08T07:20:05;10.43;;;5.57;;
21416;SDS011;10869;52.238;10.716;2023-09-08T07:25:55;6.83;;;4.20;;
21416;SDS011;10869;52.238;10.716;2023-09-08T07:28:22;7.70;;;3.90;;
21416;SDS011;10869;52.238;10.716;2023-09-08T07:30:48;6.50;;;4.00;;
21416;SDS011;10869;52.238;10.716;2023-09-08T07:36:36;12.90;;;4.43;;
21416;SDS011;10869;52.238;10.716;2023-09-08T07:39:02;10.17;;;3.57;;
21416;SDS011;10869;52.238;10.716;2023-09-08T07:44:50;7.27;;;3.90;;
21416;SDS011;10869;52.238;10.716;2023-09-08T07:47:16;6.67;;;3.53;;
21416;SDS011;10869;52.238;10.716;2023-09-08T07:49:44;6.70;;;3.70;;
21416;SDS011;10869;52.238;10.716;2023-09-08T07:52:11;9.43;;;4.00;;
21416;SDS011;10869;52.238;10.716;2023-09-08T08:36:06;7.32;;;3.40;;
21416;SDS011;10869;52.238;10.716;2023-09-08T08:43:43;6.90;;;3.63;;
21416;SDS011;10869;52.238;10.716;2023-09-08T08:46:10;6.30;;;3.47;;
21416;SDS011;10869;52.238;10.716;2023-09-08T08:48:38;6.80;;;3.50;;
21416;SDS011;10869;52.238;10.716;2023-09-08T09:40:28;7.35;;;3.38;;
21416;SDS011;10869;52.238;10.716;2023-09-08T10:39:41;7.93;;;3.42;;
21416;SDS011;10869;52.238;10.716;2023-09-08T10:45:14;6.50;;;3.70;;
21416;SDS011;10869;52.238;10.716;2023-09-08T11:00:51;7.00;;;3.72;;
21416;SDS011;10869;52.238;10.716;2023-09-08T11:06:38;6.32;;;3.47;;
21416;SDS011;10869;52.238;10.716;2023-09-08T11:09:07;9.68;;;4.07;;
21416;SDS011;10869;52.238;10.716;2023-09-08T11:11:39;7.88;;;3.60;;
21416;SDS011;10869;52.238;10.716;2023-09-08T11:14:05;8.82;;;3.33;;
21416;SDS011;10869;52.238;10.716;2023-09-08T11:16:38;6.00;;;3.42;;
21416;SDS011;10869;52.238;10.716;2023-09-08T11:19:05;8.45;;;3.38;;
21416;SDS011;10869;52.238;10.716;2023-09-08T11:21:35;6.35;;;2.88;;
21416;SDS011;10869;52.238;10.716;2023-09-08T11:24:02;8.60;;;3.72;;
21416;SDS011;10869;52.238;10.716;2023-09-08T11:26:37;19.13;;;3.78;;
21416;SDS011;10869;52.238;10.716;2023-09-08T11:32:35;7.60;;;3.58;;
21416;SDS011;10869;52.238;10.716;2023-09-08T11:58:41;6.80;;;3.50;;
